sensor_id;sensor_type;location;lat;lon;timestamp;pressure;altitude;pressure_sealevel;temperature;humidity
75759;BME280;64371;47.566;19.086;2023-03-31T19:29:10;99162.72;;;12.89;63.86
75759;BME280;64371;47.566;19.086;2023-03-31T19:32:13;99159.53;;;12.83;64.83
75759;BME280;64371;47.566;19.086;2023-03-31T19:35:16;99177.81;;;12.68;64.18
75759;BME280;64371;47.566;19.086;2023-03-31T19:38:19;99175.69;;;12.61;64.70
75759;BME280;64371;47.566;19.086;2023-03-31T19:41:22;99160.09;;;12.39;63.81
75759;BME280;64371;47.566;19.086;2023-03-31T19:44:25;99151.91;;;12.23;65.45
75759;BME280;64371;47.566;19.086;2023-03-31T19:47:27;99167.94;;;12.27;65.23
75759;BME280;64371;47.566;19.086;2023-03-31T19:50:30;99167.97;;;12.18;64.86
75759;BME280;64371;47.566;19.086;2023-03-31T19:53:33;99155.88;;;12.09;63.94
75759;BME280;64371;47.566;19.086;2023-03-31T19:56:37;99163.38;;;11.98;65.38
75759;BME280;64371;47.566;19.086;2023-03-31T19:59:40;99162.66;;;11.89;65.69
75759;BME280;64371;47.566;19.086;2023-03-31T20:02:42;99165.28;;;11.89;65.54
75759;BME280;64371;47.566;19.086;2023-03-31T20:05:45;99157.69;;;11.79;67.12
75759;BME280;64371;47.566;19.086;2023-03-31T20:08:54;99156.63;;;11.71;68.57
75759;BME280;64371;47.566;19.086;2023-03-31T20:11:57;99148.38;;;11.73;65.97
75759;BME280;64371;47.566;19.086;2023-03-31T20:14:59;99149.34;;;11.68;67.22
75759;BME280;64371;47.566;19.086;2023-03-31T20:18:02;99149.47;;;11.63;67.77
75759;BME280;64371;47.566;19.086;2023-03-31T20:21:10;99138.47;;;11.53;66.98
75759;BME280;64371;47.566;19.086;2023-03-31T20:24:17;99144.09;;;11.43;67.72
75759;BME280;64371;47.566;19.086;2023-03-31T20:27:20;99147.66;;;11.38;69.12
75759;BME280;64371;47.566;19.086;2023-03-31T20:30:27;99132.78;;;11.25;68.97
75759;BME280;64371;47.566;19.086;2023-03-31T20:33:29;99123.63;;;11.22;71.21
75759;BME280;64371;47.566;19.086;2023-03-31T20:36:31;99124.09;;;11.07;72.20
75759;BME280;64371;47.566;19.086;2023-03-31T20:39:34;99124.59;;;10.92;74.28
75759;BME280;64371;47.566;19.086;2023-03-31T20:42:37;99123.00;;;10.91;75.12
75759;BME280;64371;47.566;19.086;2023-03-31T20:45:39;99114.31;;;10.74;75.59
75759;BME280;64371;47.566;19.086;2023-03-31T20:48:43;99112.94;;;10.68;76.02
75759;BME280;64371;47.566;19.086;2023-03-31T20:51:47;99108.88;;;10.61;75.86
75759;BME280;64371;47.566;19.086;2023-03-31T20:54:50;99104.56;;;10.65;75.94
75759;BME280;64371;47.566;19.086;2023-03-31T20:57:52;99108.59;;;10.72;76.55
75759;BME280;64371;47.566;19.086;2023-03-31T21:00:57;99100.81;;;10.66;75.81
75759;BME280;64371;47.566;19.086;2023-03-31T21:04:01;99094.63;;;10.62;75.45
75759;BME280;64371;47.566;19.086;2023-03-31T21:07:04;99100.03;;;10.66;75.65
75759;BME280;64371;47.566;19.086;2023-03-31T21:10:07;99094.31;;;10.64;77.07
75759;BME280;64371;47.566;19.086;2023-03-31T21:13:10;99088.56;;;10.62;75.47
75759;BME280;64371;47.566;19.086;2023-03-31T21:16:13;99075.72;;;10.60;76.15
75759;BME280;64371;47.566;19.086;2023-03-31T21:19:16;99070.91;;;10.62;76.37
75759;BME280;64371;47.566;19.086;2023-03-31T21:22:19;99069.66;;;10.60;75.66
75759;BME280;64371;47.566;19.086;2023-03-31T21:25:23;99070.44;;;10.52;77.12
75759;BME280;64371;47.566;19.086;2023-03-31T21:28:28;99062.22;;;10.45;77.44
75759;BME280;64371;47.566;19.086;2023-03-31T21:31:30;99068.72;;;10.47;78.49
75759;BME280;64371;47.566;19.086;2023-03-31T21:34:33;99069.03;;;10.54;79.17
75759;BME280;64371;47.566;19.086;2023-03-31T21:37:35;99062.66;;;10.47;79.60
75759;BME280;64371;47.566;19.086;2023-03-31T21:40:37;99052.00;;;10.43;79.50
75759;BME280;64371;47.566;19.086;2023-03-31T21:43:40;99061.56;;;10.39;78.74
75759;BME280;64371;47.566;19.086;2023-03-31T21:46:43;99055.56;;;10.47;79.30
75759;BME280;64371;47.566;19.086;2023-03-31T21:49:46;99064.06;;;10.44;80.06
75759;BME280;64371;47.566;19.086;2023-03-31T21:52:48;99059.88;;;10.52;80.50
75759;BME280;64371;47.566;19.086;2023-03-31T21:55:50;99056.94;;;10.45;80.24
75759;BME280;64371;47.566;19.086;2023-03-31T21:58:56;99058.81;;;10.53;79.95
75759;BME280;64371;47.566;19.086;2023-03-31T22:01:58;99053.84;;;10.51;80.09
75759;BME280;64371;47.566;19.086;2023-03-31T22:05:01;99054.31;;;10.36;80.20
75759;BME280;64371;47.566;19.086;2023-03-31T22:08:04;99064.34;;;10.34;81.10
75759;BME280;64371;47.566;19.086;2023-03-31T22:11:08;99058.03;;;10.44;80.58
75759;BME280;64371;47.566;19.086;2023-03-31T22:14:12;99060.34;;;10.37;79.67
75759;BME280;64371;47.566;19.086;2023-03-31T22:17:14;99050.75;;;10.49;77.92
75759;BME280;64371;47.566;19.086;2023-03-31T22:20:16;99053.56;;;10.70;76.43
75759;BME280;64371;47.566;19.086;2023-03-31T22:23:19;99056.16;;;10.79;74.92
75759;BME280;64371;47.566;19.086;2023-03-31T22:26:22;99060.81;;;10.90;74.58
75759;BME280;64371;47.566;19.086;2023-03-31T22:29:25;99062.53;;;10.78;76.24
75759;BME280;64371;47.566;19.086;2023-03-31T22:32:27;99063.31;;;10.70;77.25
75759;BME280;64371;47.566;19.086;2023-03-31T22:35:29;99052.28;;;10.76;76.92
75759;BME280;64371;47.566;19.086;2023-03-31T22:38:32;99061.47;;;10.70;76.07
75759;BME280;64371;47.566;19.086;2023-03-31T22:41:35;99045.00;;;10.73;74.96
75759;BME280;64371;47.566;19.086;2023-03-31T22:44:37;99051.53;;;10.84;75.17
75759;BME280;64371;47.566;19.086;2023-03-31T22:47:41;99050.28;;;10.82;74.97
75759;BME280;64371;47.566;19.086;2023-03-31T22:50:43;99045.78;;;10.82;75.08
75759;BME280;64371;47.566;19.086;2023-03-31T22:53:50;99043.44;;;10.81;75.09
75759;BME280;64371;47.566;19.086;2023-03-31T22:56:52;99045.34;;;10.80;75.01
75759;BME280;64371;47.566;19.086;2023-03-31T22:59:58;99045.19;;;10.68;75.48
75759;BME280;64371;47.566;19.086;2023-03-31T23:03:00;99042.56;;;10.68;75.26
75759;BME280;64371;47.566;19.086;2023-03-31T23:06:05;99041.00;;;10.67;75.42
75759;BME280;64371;47.566;19.086;2023-03-31T23:09:07;99036.34;;;10.64;74.97
75759;BME280;64371;47.566;19.086;2023-03-31T23:12:09;99031.84;;;10.39;76.60
75759;BME280;64371;47.566;19.086;2023-03-31T23:15:12;99027.81;;;10.24;75.60
75759;BME280;64371;47.566;19.086;2023-03-31T23:18:14;99048.63;;;10.03;76.67
75759;BME280;64371;47.566;19.086;2023-03-31T23:21:22;99042.28;;;10.05;77.46
75759;BME280;64371;47.566;19.086;2023-03-31T23:24:25;99034.81;;;9.89;79.38
75759;BME280;64371;47.566;19.086;2023-03-31T23:27:30;99039.56;;;9.79;78.42
75759;BME280;64371;47.566;19.086;2023-03-31T23:30:32;99049.97;;;9.84;80.15
75759;BME280;64371;47.566;19.086;2023-03-31T23:33:35;99033.19;;;9.63;80.81
75759;BME280;64371;47.566;19.086;2023-03-31T23:36:37;99028.97;;;9.53;79.53
75759;BME280;64371;47.566;19.086;2023-03-31T23:39:39;99028.22;;;9.61;81.76
75759;BME280;64371;47.566;19.086;2023-03-31T23:42:41;99036.53;;;9.55;81.21
75759;BME280;64371;47.566;19.086;2023-03-31T23:45:44;99029.09;;;9.48;82.69
75759;BME280;64371;47.566;19.086;2023-03-31T23:48:46;99035.59;;;9.51;82.20
75759;BME280;64371;47.566;19.086;2023-03-31T23:51:48;99029.88;;;9.49;82.12
75759;BME280;64371;47.566;19.086;2023-03-31T23:54:51;99039.94;;;10.03;80.23
75759;BME280;64371;47.566;19.086;2023-03-31T23:57:54;99035.38;;;10.17;79.18
